sensor_id;sensor_type;location;lat;lon;timestamp;P1;durP1;ratioP1;P2;durP2;ratioP2
25917;SDS011;13899;51.174;4.456;2024-01-10T00:01:17;9.20;;;6.97;;
25917;SDS011;13899;51.174;4.456;2024-01-10T00:03:44;10.35;;;7.22;;
25917;SDS011;13899;51.174;4.456;2024-01-10T00:06:10;7.97;;;5.30;;
25917;SDS011;13899;51.174;4.456;2024-01-10T00:08:36;9.57;;;7.40;;
25917;SDS011;13899;51.174;4.456;2024-01-10T00:11:02;10.27;;;5.20;;
25917;SDS011;13899;51.174;4.456;2024-01-10T00:13:28;9.18;;;7.05;;
25917;SDS011;13899;51.174;4.456;2024-01-10T00:15:56;11.05;;;7.00;;
25917;SDS011;13899;51.174;4.456;2024-01-10T00:18:23;9.38;;;7.00;;
25917;SDS011;13899;51.174;4.456;2024-01-10T00:20:50;9.27;;;6.18;;
25917;SDS011;13899;51.174;4.456;2024-01-10T00:23:19;8.43;;;6.72;;
25917;SDS011;13899;51.174;4.456;2024-01-10T00:25:46;9.88;;;6.93;;
25917;SDS011;13899;51.174;4.456;2024-01-10T00:28:11;12.57;;;6.85;;
25917;SDS011;13899;51.174;4.456;2024-01-10T00:30:37;7.07;;;6.17;;
25917;SDS011;13899;51.174;4.456;2024-01-10T00:33:03;12.95;;;7.35;;
25917;SDS011;13899;51.174;4.456;2024-01-10T00:35:30;6.70;;;5.13;;
25917;SDS011;13899;51.174;4.456;2024-01-10T00:37:55;10.07;;;7.00;;
25917;SDS011;13899;51.174;4.456;2024-01-10T00:40:22;12.70;;;7.53;;
25917;SDS011;13899;51.174;4.456;2024-01-10T00:42:48;8.32;;;5.93;;
25917;SDS011;13899;51.174;4.456;2024-01-10T00:45:13;10.83;;;6.40;;
25917;SDS011;13899;51.174;4.456;2024-01-10T00:47:39;8.73;;;5.13;;
25917;SDS011;13899;51.174;4.456;2024-01-10T00:50:05;9.00;;;4.53;;
25917;SDS011;13899;51.174;4.456;2024-01-10T00:52:31;8.88;;;6.43;;
25917;SDS011;13899;51.174;4.456;2024-01-10T00:54:56;10.13;;;5.97;;
25917;SDS011;13899;51.174;4.456;2024-01-10T00:57:22;7.50;;;5.07;;
25917;SDS011;13899;51.174;4.456;2024-01-10T00:59:48;9.13;;;6.10;;
25917;SDS011;13899;51.174;4.456;2024-01-10T01:02:13;12.50;;;7.80;;
25917;SDS011;13899;51.174;4.456;2024-01-10T01:04:39;6.50;;;5.50;;
25917;SDS011;13899;51.174;4.456;2024-01-10T01:07:04;8.30;;;6.57;;
25917;SDS011;13899;51.174;4.456;2024-01-10T01:09:30;7.97;;;4.97;;
25917;SDS011;13899;51.174;4.456;2024-01-10T01:11:56;7.03;;;5.33;;
25917;SDS011;13899;51.174;4.456;2024-01-10T01:14:21;9.27;;;6.80;;
25917;SDS011;13899;51.174;4.456;2024-01-10T01:16:47;7.73;;;4.53;;
25917;SDS011;13899;51.174;4.456;2024-01-10T01:19:12;9.60;;;6.80;;
25917;SDS011;13899;51.174;4.456;2024-01-10T01:21:38;10.13;;;6.87;;
25917;SDS011;13899;51.174;4.456;2024-01-10T01:24:04;15.93;;;8.33;;
25917;SDS011;13899;51.174;4.456;2024-01-10T01:26:29;8.27;;;5.97;;
25917;SDS011;13899;51.174;4.456;2024-01-10T01:28:55;9.30;;;6.77;;
25917;SDS011;13899;51.174;4.456;2024-01-10T01:31:21;6.73;;;4.90;;
25917;SDS011;13899;51.174;4.456;2024-01-10T01:33:46;10.17;;;6.40;;
25917;SDS011;13899;51.174;4.456;2024-01-10T01:36:12;16.33;;;7.17;;
25917;SDS011;13899;51.174;4.456;2024-01-10T01:38:37;13.30;;;6.87;;
25917;SDS011;13899;51.174;4.456;2024-01-10T01:41:03;8.47;;;5.73;;
25917;SDS011;13899;51.174;4.456;2024-01-10T01:43:30;9.70;;;6.53;;
25917;SDS011;13899;51.174;4.456;2024-01-10T01:45:57;8.48;;;5.60;;
25917;SDS011;13899;51.174;4.456;2024-01-10T01:48:23;10.65;;;6.93;;
25917;SDS011;13899;51.174;4.456;2024-01-10T01:50:57;9.05;;;6.70;;
25917;SDS011;13899;51.174;4.456;2024-01-10T01:53:24;8.32;;;6.90;;
25917;SDS011;13899;51.174;4.456;2024-01-10T01:55:51;9.38;;;5.78;;
25917;SDS011;13899;51.174;4.456;2024-01-10T01:58:18;12.82;;;7.00;;
25917;SDS011;13899;51.174;4.456;2024-01-10T02:00:45;9.43;;;6.38;;
25917;SDS011;13899;51.174;4.456;2024-01-10T02:03:11;8.35;;;6.18;;
25917;SDS011;13899;51.174;4.456;2024-01-10T02:05:37;9.90;;;6.77;;
25917;SDS011;13899;51.174;4.456;2024-01-10T02:08:02;9.77;;;7.03;;
25917;SDS011;13899;51.174;4.456;2024-01-10T02:10:28;8.77;;;5.55;;
25917;SDS011;13899;51.174;4.456;2024-01-10T02:12:54;8.13;;;6.33;;
25917;SDS011;13899;51.174;4.456;2024-01-10T02:15:20;9.52;;;6.53;;
25917;SDS011;13899;51.174;4.456;2024-01-10T02:17:46;10.33;;;6.93;;
25917;SDS011;13899;51.174;4.456;2024-01-10T02:20:15;6.63;;;4.93;;
25917;SDS011;13899;51.174;4.456;2024-01-10T02:22:45;9.10;;;6.32;;
25917;SDS011;13899;51.174;4.456;2024-01-10T02:25:12;7.97;;;6.45;;
25917;SDS011;13899;51.174;4.456;2024-01-10T02:30:05;8.35;;;6.05;;
25917;SDS011;13899;51.174;4.456;2024-01-10T02:32:32;8.68;;;6.72;;
25917;SDS011;13899;51.174;4.456;2024-01-10T02:34:58;9.13;;;5.80;;
25917;SDS011;13899;51.174;4.456;2024-01-10T02:37:24;9.35;;;4.68;;
25917;SDS011;13899;51.174;4.456;2024-01-10T02:39:50;6.37;;;4.40;;
25917;SDS011;13899;51.174;4.456;2024-01-10T02:42:16;8.57;;;6.63;;
25917;SDS011;13899;51.174;4.456;2024-01-10T02:44:41;8.68;;;6.88;;
25917;SDS011;13899;51.174;4.456;2024-01-10T02:47:07;5.47;;;4.20;;
25917;SDS011;13899;51.174;4.456;2024-01-10T02:49:34;13.35;;;6.15;;
25917;SDS011;13899;51.174;4.456;2024-01-10T02:51:59;6.07;;;4.37;;
25917;SDS011;13899;51.174;4.456;2024-01-10T02:54:25;9.07;;;4.83;;
25917;SDS011;13899;51.174;4.456;2024-01-10T02:56:51;6.78;;;5.45;;
25917;SDS011;13899;51.174;4.456;2024-01-10T02:59:17;7.35;;;4.55;;
25917;SDS011;13899;51.174;4.456;2024-01-10T03:01:43;5.90;;;4.40;;
25917;SDS011;13899;51.174;4.456;2024-01-10T03:04:08;8.25;;;5.90;;
25917;SDS011;13899;51.174;4.456;2024-01-10T03:06:34;5.35;;;4.80;;
25917;SDS011;13899;51.174;4.456;2024-01-10T03:09:00;8.43;;;6.00;;
25917;SDS011;13899;51.174;4.456;2024-01-10T03:11:26;7.30;;;5.50;;
25917;SDS011;13899;51.174;4.456;2024-01-10T03:13:53;12.23;;;5.03;;
25917;SDS011;13899;51.174;4.456;2024-01-10T03:16:26;9.50;;;5.45;;
25917;SDS011;13899;51.174;4.456;2024-01-10T03:18:52;5.03;;;4.07;;
25917;SDS011;13899;51.174;4.456;2024-01-10T03:21:17;5.93;;;4.47;;
25917;SDS011;13899;51.174;4.456;2024-01-10T03:23:50;7.95;;;6.28;;
25917;SDS011;13899;51.174;4.456;2024-01-10T03:28:42;7.57;;;5.22;;
25917;SDS011;13899;51.174;4.456;2024-01-10T03:31:07;7.33;;;6.13;;
25917;SDS011;13899;51.174;4.456;2024-01-10T03:33:36;6.93;;;5.43;;
25917;SDS011;13899;51.174;4.456;2024-01-10T03:36:02;8.93;;;5.47;;
25917;SDS011;13899;51.174;4.456;2024-01-10T03:38:28;8.50;;;6.40;;
25917;SDS011;13899;51.174;4.456;2024-01-10T03:40:54;9.17;;;6.13;;
25917;SDS011;13899;51.174;4.456;2024-01-10T03:43:20;9.20;;;6.13;;
25917;SDS011;13899;51.174;4.456;2024-01-10T03:45:45;7.93;;;5.67;;
25917;SDS011;13899;51.174;4.456;2024-01-10T03:48:11;7.90;;;5.93;;
25917;SDS011;13899;51.174;4.456;2024-01-10T03:50:36;9.70;;;5.57;;
25917;SDS011;13899;51.174;4.456;2024-01-10T03:53:02;5.45;;;3.88;;
25917;SDS011;13899;51.174;4.456;2024-01-10T03:55:28;9.97;;;4.27;;
25917;SDS011;13899;51.174;4.456;2024-01-10T03:57:54;9.05;;;5.68;;
25917;SDS011;13899;51.174;4.456;2024-01-10T04:00:21;9.27;;;5.60;;
25917;SDS011;13899;51.174;4.456;2024-01-10T04:02:46;5.67;;;4.20;;
25917;SDS011;13899;51.174;4.456;2024-01-10T04:05:12;7.47;;;5.63;;
25917;SDS011;13899;51.174;4.456;2024-01-10T04:07:41;8.90;;;5.67;;
25917;SDS011;13899;51.174;4.456;2024-01-10T04:10:08;8.38;;;5.43;;
25917;SDS011;13899;51.174;4.456;2024-01-10T04:12:45;7.75;;;5.55;;
25917;SDS011;13899;51.174;4.456;2024-01-10T04:15:11;9.95;;;5.25;;
25917;SDS011;13899;51.174;4.456;2024-01-10T04:17:37;9.93;;;5.63;;
25917;SDS011;13899;51.174;4.456;2024-01-10T04:20:03;5.93;;;4.20;;
25917;SDS011;13899;51.174;4.456;2024-01-10T04:24:57;7.72;;;5.32;;
25917;SDS011;13899;51.174;4.456;2024-01-10T04:27:23;6.75;;;5.20;;
25917;SDS011;13899;51.174;4.456;2024-01-10T04:29:48;5.20;;;4.33;;
25917;SDS011;13899;51.174;4.456;2024-01-10T04:32:14;6.60;;;4.70;;
25917;SDS011;13899;51.174;4.456;2024-01-10T04:34:40;5.13;;;4.20;;
25917;SDS011;13899;51.174;4.456;2024-01-10T04:37:06;5.97;;;4.40;;
25917;SDS011;13899;51.174;4.456;2024-01-10T04:39:34;8.25;;;5.40;;
25917;SDS011;13899;51.174;4.456;2024-01-10T04:42:00;8.38;;;6.10;;
25917;SDS011;13899;51.174;4.456;2024-01-10T04:44:26;8.38;;;5.63;;
25917;SDS011;13899;51.174;4.456;2024-01-10T04:46:52;7.53;;;5.40;;
25917;SDS011;13899;51.174;4.456;2024-01-10T04:49:17;5.83;;;4.53;;
25917;SDS011;13899;51.174;4.456;2024-01-10T04:51:43;8.50;;;5.60;;
25917;SDS011;13899;51.174;4.456;2024-01-10T04:54:09;8.03;;;5.87;;
25917;SDS011;13899;51.174;4.456;2024-01-10T04:56:35;7.97;;;5.97;;
25917;SDS011;13899;51.174;4.456;2024-01-10T04:59:04;7.15;;;5.20;;
25917;SDS011;13899;51.174;4.456;2024-01-10T05:01:30;6.88;;;5.43;;
25917;SDS011;13899;51.174;4.456;2024-01-10T05:03:56;7.20;;;5.38;;
25917;SDS011;13899;51.174;4.456;2024-01-10T05:06:22;8.43;;;4.93;;
25917;SDS011;13899;51.174;4.456;2024-01-10T05:08:48;5.38;;;4.07;;
25917;SDS011;13899;51.174;4.456;2024-01-10T05:11:14;7.27;;;5.40;;
25917;SDS011;13899;51.174;4.456;2024-01-10T05:13:40;11.38;;;6.20;;
25917;SDS011;13899;51.174;4.456;2024-01-10T05:16:06;5.87;;;4.57;;
25917;SDS011;13899;51.174;4.456;2024-01-10T05:18:32;16.97;;;6.37;;
25917;SDS011;13899;51.174;4.456;2024-01-10T05:20:58;10.40;;;4.80;;
25917;SDS011;13899;51.174;4.456;2024-01-10T05:23:24;8.13;;;5.97;;
25917;SDS011;13899;51.174;4.456;2024-01-10T05:25:49;7.27;;;5.43;;
25917;SDS011;13899;51.174;4.456;2024-01-10T05:28:15;8.67;;;6.13;;
25917;SDS011;13899;51.174;4.456;2024-01-10T05:30:41;7.85;;;5.43;;
25917;SDS011;13899;51.174;4.456;2024-01-10T05:33:09;8.45;;;5.38;;
25917;SDS011;13899;51.174;4.456;2024-01-10T05:35:36;10.25;;;5.57;;
25917;SDS011;13899;51.174;4.456;2024-01-10T05:38:04;9.45;;;5.85;;
25917;SDS011;13899;51.174;4.456;2024-01-10T05:40:30;8.30;;;5.77;;
25917;SDS011;13899;51.174;4.456;2024-01-10T05:42:56;7.45;;;5.45;;
25917;SDS011;13899;51.174;4.456;2024-01-10T05:45:24;11.20;;;5.93;;
25917;SDS011;13899;51.174;4.456;2024-01-10T05:47:50;7.93;;;5.60;;
25917;SDS011;13899;51.174;4.456;2024-01-10T05:50:16;7.18;;;4.80;;
25917;SDS011;13899;51.174;4.456;2024-01-10T05:52:42;7.03;;;4.65;;
25917;SDS011;13899;51.174;4.456;2024-01-10T05:55:08;10.10;;;6.07;;
25917;SDS011;13899;51.174;4.456;2024-01-10T05:57:35;11.38;;;6.75;;
25917;SDS011;13899;51.174;4.456;2024-01-10T06:00:04;8.77;;;6.60;;
25917;SDS011;13899;51.174;4.456;2024-01-10T06:02:35;8.52;;;6.10;;
25917;SDS011;13899;51.174;4.456;2024-01-10T06:05:13;10.07;;;6.03;;
25917;SDS011;13899;51.174;4.456;2024-01-10T06:07:39;8.73;;;5.80;;
25917;SDS011;13899;51.174;4.456;2024-01-10T06:10:08;10.05;;;6.50;;
25917;SDS011;13899;51.174;4.456;2024-01-10T06:15:00;8.35;;;5.97;;
25917;SDS011;13899;51.174;4.456;2024-01-10T06:17:26;6.00;;;4.80;;
25917;SDS011;13899;51.174;4.456;2024-01-10T06:19:51;9.73;;;5.93;;
25917;SDS011;13899;51.174;4.456;2024-01-10T06:22:17;7.87;;;6.17;;
25917;SDS011;13899;51.174;4.456;2024-01-10T06:24:43;10.03;;;5.87;;
25917;SDS011;13899;51.174;4.456;2024-01-10T06:27:09;7.80;;;4.85;;
25917;SDS011;13899;51.174;4.456;2024-01-10T06:29:35;9.63;;;6.10;;
25917;SDS011;13899;51.174;4.456;2024-01-10T06:32:02;10.95;;;5.90;;
25917;SDS011;13899;51.174;4.456;2024-01-10T06:34:31;7.93;;;6.55;;
25917;SDS011;13899;51.174;4.456;2024-01-10T06:36:57;13.95;;;6.85;;
25917;SDS011;13899;51.174;4.456;2024-01-10T06:39:23;8.13;;;5.77;;
25917;SDS011;13899;51.174;4.456;2024-01-10T06:41:49;11.95;;;6.22;;
25917;SDS011;13899;51.174;4.456;2024-01-10T06:44:15;13.53;;;6.70;;
25917;SDS011;13899;51.174;4.456;2024-01-10T06:46:44;8.93;;;6.43;;
25917;SDS011;13899;51.174;4.456;2024-01-10T06:49:10;11.05;;;7.13;;
25917;SDS011;13899;51.174;4.456;2024-01-10T06:51:36;8.15;;;5.30;;
25917;SDS011;13899;51.174;4.456;2024-01-10T06:54:01;7.07;;;4.80;;
25917;SDS011;13899;51.174;4.456;2024-01-10T06:56:30;9.13;;;6.10;;
25917;SDS011;13899;51.174;4.456;2024-01-10T06:58:57;8.77;;;6.53;;
25917;SDS011;13899;51.174;4.456;2024-01-10T07:01:23;11.23;;;7.05;;
25917;SDS011;13899;51.174;4.456;2024-01-10T07:03:49;6.53;;;4.93;;
25917;SDS011;13899;51.174;4.456;2024-01-10T07:06:14;12.40;;;7.47;;
25917;SDS011;13899;51.174;4.456;2024-01-10T07:08:41;8.93;;;6.47;;
25917;SDS011;13899;51.174;4.456;2024-01-10T07:11:10;8.98;;;6.78;;
25917;SDS011;13899;51.174;4.456;2024-01-10T07:13:39;10.27;;;7.28;;
25917;SDS011;13899;51.174;4.456;2024-01-10T07:16:06;8.07;;;5.97;;
25917;SDS011;13899;51.174;4.456;2024-01-10T07:18:32;8.30;;;4.63;;
25917;SDS011;13899;51.174;4.456;2024-01-10T07:20:57;7.60;;;4.90;;
25917;SDS011;13899;51.174;4.456;2024-01-10T07:23:23;7.27;;;4.77;;
25917;SDS011;13899;51.174;4.456;2024-01-10T07:25:49;9.43;;;7.13;;
25917;SDS011;13899;51.174;4.456;2024-01-10T07:28:15;9.23;;;6.70;;
25917;SDS011;13899;51.174;4.456;2024-01-10T07:30:41;11.15;;;7.85;;
25917;SDS011;13899;51.174;4.456;2024-01-10T07:33:06;9.00;;;6.50;;
25917;SDS011;13899;51.174;4.456;2024-01-10T07:35:32;11.13;;;7.82;;
25917;SDS011;13899;51.174;4.456;2024-01-10T07:37:58;7.13;;;5.70;;
25917;SDS011;13899;51.174;4.456;2024-01-10T07:40:24;8.73;;;5.37;;
25917;SDS011;13899;51.174;4.456;2024-01-10T07:42:49;10.83;;;5.70;;
25917;SDS011;13899;51.174;4.456;2024-01-10T07:45:15;7.03;;;5.47;;
25917;SDS011;13899;51.174;4.456;2024-01-10T07:47:41;15.07;;;6.90;;
25917;SDS011;13899;51.174;4.456;2024-01-10T07:50:07;7.23;;;5.43;;
25917;SDS011;13899;51.174;4.456;2024-01-10T07:52:34;9.52;;;7.30;;
25917;SDS011;13899;51.174;4.456;2024-01-10T07:55:00;14.27;;;7.07;;
25917;SDS011;13899;51.174;4.456;2024-01-10T07:57:26;10.60;;;7.15;;
25917;SDS011;13899;51.174;4.456;2024-01-10T07:59:52;9.15;;;5.57;;
25917;SDS011;13899;51.174;4.456;2024-01-10T08:02:18;10.38;;;7.55;;
25917;SDS011;13899;51.174;4.456;2024-01-10T08:04:44;8.73;;;6.97;;
25917;SDS011;13899;51.174;4.456;2024-01-10T08:07:09;12.10;;;7.70;;
25917;SDS011;13899;51.174;4.456;2024-01-10T08:09:35;17.02;;;7.68;;
25917;SDS011;13899;51.174;4.456;2024-01-10T08:12:01;8.70;;;6.47;;
25917;SDS011;13899;51.174;4.456;2024-01-10T08:14:28;10.82;;;6.35;;
25917;SDS011;13899;51.174;4.456;2024-01-10T08:16:53;7.87;;;6.07;;
25917;SDS011;13899;51.174;4.456;2024-01-10T08:19:22;12.85;;;7.13;;
25917;SDS011;13899;51.174;4.456;2024-01-10T08:21:55;18.30;;;7.75;;
25917;SDS011;13899;51.174;4.456;2024-01-10T08:24:21;12.40;;;7.45;;
25917;SDS011;13899;51.174;4.456;2024-01-10T08:26:47;9.50;;;6.25;;
25917;SDS011;13899;51.174;4.456;2024-01-10T08:29:19;14.60;;;7.78;;
25917;SDS011;13899;51.174;4.456;2024-01-10T08:31:46;6.93;;;5.45;;
25917;SDS011;13899;51.174;4.456;2024-01-10T08:34:12;12.05;;;7.80;;
25917;SDS011;13899;51.174;4.456;2024-01-10T08:36:38;9.93;;;5.83;;
25917;SDS011;13899;51.174;4.456;2024-01-10T08:39:03;14.17;;;6.27;;
25917;SDS011;13899;51.174;4.456;2024-01-10T08:41:29;13.83;;;8.47;;
25917;SDS011;13899;51.174;4.456;2024-01-10T08:43:55;10.88;;;8.27;;
25917;SDS011;13899;51.174;4.456;2024-01-10T08:46:22;11.20;;;6.85;;
25917;SDS011;13899;51.174;4.456;2024-01-10T08:48:48;12.70;;;8.23;;
25917;SDS011;13899;51.174;4.456;2024-01-10T08:51:14;13.03;;;8.60;;
25917;SDS011;13899;51.174;4.456;2024-01-10T08:53:41;15.00;;;8.02;;
25917;SDS011;13899;51.174;4.456;2024-01-10T08:56:07;11.30;;;8.00;;
25917;SDS011;13899;51.174;4.456;2024-01-10T08:58:33;8.50;;;5.57;;
25917;SDS011;13899;51.174;4.456;2024-01-10T09:00:59;12.80;;;7.37;;
25917;SDS011;13899;51.174;4.456;2024-01-10T09:03:24;13.30;;;7.93;;
25917;SDS011;13899;51.174;4.456;2024-01-10T09:05:50;13.20;;;7.87;;
25917;SDS011;13899;51.174;4.456;2024-01-10T09:08:15;15.23;;;8.80;;
25917;SDS011;13899;51.174;4.456;2024-01-10T09:10:42;10.85;;;7.80;;
25917;SDS011;13899;51.174;4.456;2024-01-10T09:13:07;8.90;;;7.20;;
25917;SDS011;13899;51.174;4.456;2024-01-10T09:15:34;11.40;;;7.78;;
25917;SDS011;13899;51.174;4.456;2024-01-10T09:17:59;12.37;;;7.83;;
25917;SDS011;13899;51.174;4.456;2024-01-10T09:20:25;9.03;;;6.63;;
25917;SDS011;13899;51.174;4.456;2024-01-10T09:22:51;18.07;;;7.50;;
25917;SDS011;13899;51.174;4.456;2024-01-10T09:25:16;9.70;;;6.00;;
25917;SDS011;13899;51.174;4.456;2024-01-10T09:27:42;12.87;;;6.23;;
25917;SDS011;13899;51.174;4.456;2024-01-10T09:30:09;10.57;;;8.13;;
25917;SDS011;13899;51.174;4.456;2024-01-10T09:32:35;7.28;;;6.07;;
25917;SDS011;13899;51.174;4.456;2024-01-10T09:35:01;9.45;;;6.72;;
25917;SDS011;13899;51.174;4.456;2024-01-10T09:37:27;11.40;;;6.38;;
25917;SDS011;13899;51.174;4.456;2024-01-10T09:39:52;16.63;;;8.40;;
25917;SDS011;13899;51.174;4.456;2024-01-10T09:42:18;8.60;;;6.33;;
25917;SDS011;13899;51.174;4.456;2024-01-10T09:44:50;14.93;;;7.88;;
25917;SDS011;13899;51.174;4.456;2024-01-10T09:47:17;12.63;;;11.15;;
25917;SDS011;13899;51.174;4.456;2024-01-10T09:49:45;9.50;;;8.50;;
25917;SDS011;13899;51.174;4.456;2024-01-10T09:52:16;11.25;;;7.90;;
25917;SDS011;13899;51.174;4.456;2024-01-10T09:54:48;10.75;;;8.48;;
25917;SDS011;13899;51.174;4.456;2024-01-10T09:57:18;16.20;;;7.93;;
25917;SDS011;13899;51.174;4.456;2024-01-10T09:59:46;10.60;;;7.25;;
25917;SDS011;13899;51.174;4.456;2024-01-10T10:02:13;14.57;;;7.20;;
25917;SDS011;13899;51.174;4.456;2024-01-10T10:04:41;10.07;;;7.88;;
25917;SDS011;13899;51.174;4.456;2024-01-10T10:07:26;8.18;;;6.72;;
25917;SDS011;13899;51.174;4.456;2024-01-10T10:09:52;16.00;;;6.60;;
25917;SDS011;13899;51.174;4.456;2024-01-10T10:12:18;9.70;;;7.20;;
25917;SDS011;13899;51.174;4.456;2024-01-10T10:14:44;11.23;;;7.80;;
25917;SDS011;13899;51.174;4.456;2024-01-10T10:17:13;10.43;;;7.73;;
25917;SDS011;13899;51.174;4.456;2024-01-10T10:19:42;10.38;;;7.93;;
25917;SDS011;13899;51.174;4.456;2024-01-10T10:22:09;10.70;;;9.07;;
25917;SDS011;13899;51.174;4.456;2024-01-10T10:24:36;11.50;;;10.30;;
25917;SDS011;13899;51.174;4.456;2024-01-10T10:27:07;9.23;;;7.43;;
25917;SDS011;13899;51.174;4.456;2024-01-10T10:29:35;10.57;;;7.43;;
25917;SDS011;13899;51.174;4.456;2024-01-10T10:32:02;11.13;;;7.95;;
25917;SDS011;13899;51.174;4.456;2024-01-10T10:34:30;9.15;;;7.05;;
25917;SDS011;13899;51.174;4.456;2024-01-10T10:36:57;10.07;;;9.07;;
25917;SDS011;13899;51.174;4.456;2024-01-10T10:39:23;10.73;;;7.68;;
25917;SDS011;13899;51.174;4.456;2024-01-10T10:41:50;12.80;;;8.35;;
25917;SDS011;13899;51.174;4.456;2024-01-10T10:44:18;9.48;;;7.57;;
25917;SDS011;13899;51.174;4.456;2024-01-10T10:46:48;12.75;;;8.45;;
25917;SDS011;13899;51.174;4.456;2024-01-10T10:49:17;12.40;;;8.35;;
25917;SDS011;13899;51.174;4.456;2024-01-10T10:51:46;9.52;;;7.68;;
25917;SDS011;13899;51.174;4.456;2024-01-10T10:54:12;10.65;;;8.38;;
25917;SDS011;13899;51.174;4.456;2024-01-10T10:56:41;12.05;;;8.27;;
25917;SDS011;13899;51.174;4.456;2024-01-10T10:59:09;10.70;;;8.10;;
25917;SDS011;13899;51.174;4.456;2024-01-10T11:01:37;15.98;;;8.40;;
25917;SDS011;13899;51.174;4.456;2024-01-10T11:04:05;12.93;;;9.05;;
25917;SDS011;13899;51.174;4.456;2024-01-10T11:06:31;14.30;;;12.05;;
25917;SDS011;13899;51.174;4.456;2024-01-10T11:08:59;11.10;;;8.57;;
25917;SDS011;13899;51.174;4.456;2024-01-10T11:19:58;11.00;;;9.05;;
25917;SDS011;13899;51.174;4.456;2024-01-10T11:25:20;13.18;;;8.90;;
25917;SDS011;13899;51.174;4.456;2024-01-10T11:27:45;13.77;;;8.90;;
25917;SDS011;13899;51.174;4.456;2024-01-10T11:30:30;13.93;;;10.07;;
25917;SDS011;13899;51.174;4.456;2024-01-10T11:36:05;11.75;;;8.90;;
25917;SDS011;13899;51.174;4.456;2024-01-10T11:38:43;10.55;;;7.90;;
25917;SDS011;13899;51.174;4.456;2024-01-10T11:41:34;11.13;;;8.68;;
25917;SDS011;13899;51.174;4.456;2024-01-10T11:49:11;11.60;;;8.40;;
25917;SDS011;13899;51.174;4.456;2024-01-10T11:51:44;14.30;;;8.82;;
25917;SDS011;13899;51.174;4.456;2024-01-10T11:57:01;15.95;;;9.95;;
25917;SDS011;13899;51.174;4.456;2024-01-10T11:59:27;9.67;;;8.23;;
25917;SDS011;13899;51.174;4.456;2024-01-10T12:01:55;11.68;;;8.85;;
25917;SDS011;13899;51.174;4.456;2024-01-10T12:04:21;14.87;;;10.27;;
25917;SDS011;13899;51.174;4.456;2024-01-10T12:06:47;10.75;;;8.63;;
25917;SDS011;13899;51.174;4.456;2024-01-10T12:09:12;9.43;;;8.43;;
25917;SDS011;13899;51.174;4.456;2024-01-10T12:11:41;12.73;;;10.97;;
25917;SDS011;13899;51.174;4.456;2024-01-10T12:14:10;12.75;;;11.65;;
25917;SDS011;13899;51.174;4.456;2024-01-10T12:16:37;12.65;;;11.50;;
25917;SDS011;13899;51.174;4.456;2024-01-10T12:19:03;13.18;;;9.85;;
25917;SDS011;13899;51.174;4.456;2024-01-10T12:21:30;15.77;;;13.98;;
25917;SDS011;13899;51.174;4.456;2024-01-10T12:23:55;13.27;;;11.95;;
25917;SDS011;13899;51.174;4.456;2024-01-10T12:26:21;12.15;;;10.63;;
25917;SDS011;13899;51.174;4.456;2024-01-10T12:28:54;11.60;;;10.47;;
25917;SDS011;13899;51.174;4.456;2024-01-10T12:31:23;14.95;;;13.48;;
25917;SDS011;13899;51.174;4.456;2024-01-10T12:33:51;13.32;;;12.02;;
25917;SDS011;13899;51.174;4.456;2024-01-10T12:36:18;9.00;;;6.67;;
25917;SDS011;13899;51.174;4.456;2024-01-10T12:38:44;12.45;;;9.48;;
25917;SDS011;13899;51.174;4.456;2024-01-10T12:41:10;10.05;;;6.38;;
25917;SDS011;13899;51.174;4.456;2024-01-10T12:43:37;11.20;;;8.32;;
25917;SDS011;13899;51.174;4.456;2024-01-10T12:46:03;12.02;;;9.32;;
25917;SDS011;13899;51.174;4.456;2024-01-10T12:48:33;12.63;;;9.55;;
25917;SDS011;13899;51.174;4.456;2024-01-10T12:51:02;10.50;;;8.55;;
25917;SDS011;13899;51.174;4.456;2024-01-10T12:53:31;11.25;;;9.45;;
25917;SDS011;13899;51.174;4.456;2024-01-10T12:56:01;15.27;;;9.15;;
25917;SDS011;13899;51.174;4.456;2024-01-10T12:58:28;12.90;;;9.90;;
25917;SDS011;13899;51.174;4.456;2024-01-10T13:00:54;13.27;;;9.18;;
25917;SDS011;13899;51.174;4.456;2024-01-10T13:03:20;11.18;;;8.90;;
25917;SDS011;13899;51.174;4.456;2024-01-10T13:05:46;13.27;;;9.87;;
25917;SDS011;13899;51.174;4.456;2024-01-10T13:08:12;13.80;;;9.10;;
25917;SDS011;13899;51.174;4.456;2024-01-10T13:10:38;12.45;;;9.30;;
25917;SDS011;13899;51.174;4.456;2024-01-10T13:13:05;12.60;;;9.27;;
25917;SDS011;13899;51.174;4.456;2024-01-10T13:15:30;11.43;;;8.80;;
25917;SDS011;13899;51.174;4.456;2024-01-10T13:17:56;12.85;;;8.32;;
25917;SDS011;13899;51.174;4.456;2024-01-10T13:20:23;10.88;;;9.27;;
25917;SDS011;13899;51.174;4.456;2024-01-10T13:25:15;11.75;;;9.25;;
25917;SDS011;13899;51.174;4.456;2024-01-10T13:27:41;10.65;;;9.63;;
25917;SDS011;13899;51.174;4.456;2024-01-10T13:30:07;11.43;;;9.50;;
25917;SDS011;13899;51.174;4.456;2024-01-10T13:32:36;11.90;;;9.02;;
25917;SDS011;13899;51.174;4.456;2024-01-10T13:35:03;12.37;;;10.03;;
25917;SDS011;13899;51.174;4.456;2024-01-10T13:37:29;11.77;;;9.32;;
25917;SDS011;13899;51.174;4.456;2024-01-10T13:39:56;14.23;;;9.38;;
25917;SDS011;13899;51.174;4.456;2024-01-10T13:42:22;12.80;;;9.33;;
25917;SDS011;13899;51.174;4.456;2024-01-10T13:44:48;16.00;;;9.27;;
25917;SDS011;13899;51.174;4.456;2024-01-10T13:47:15;12.85;;;9.65;;
25917;SDS011;13899;51.174;4.456;2024-01-10T13:49:42;11.63;;;9.57;;
25917;SDS011;13899;51.174;4.456;2024-01-10T13:52:08;12.60;;;9.53;;
25917;SDS011;13899;51.174;4.456;2024-01-10T13:54:34;14.80;;;11.00;;
25917;SDS011;13899;51.174;4.456;2024-01-10T13:57:01;11.43;;;9.93;;
25917;SDS011;13899;51.174;4.456;2024-01-10T13:59:26;12.57;;;10.07;;
25917;SDS011;13899;51.174;4.456;2024-01-10T14:01:52;13.80;;;10.07;;
25917;SDS011;13899;51.174;4.456;2024-01-10T14:04:18;14.90;;;9.80;;
25917;SDS011;13899;51.174;4.456;2024-01-10T14:06:43;11.60;;;9.65;;
25917;SDS011;13899;51.174;4.456;2024-01-10T14:09:09;10.97;;;8.07;;
25917;SDS011;13899;51.174;4.456;2024-01-10T14:11:35;13.93;;;11.93;;
25917;SDS011;13899;51.174;4.456;2024-01-10T14:14:01;15.07;;;10.70;;
25917;SDS011;13899;51.174;4.456;2024-01-10T14:16:26;12.40;;;10.50;;
25917;SDS011;13899;51.174;4.456;2024-01-10T14:18:53;13.50;;;9.93;;
25917;SDS011;13899;51.174;4.456;2024-01-10T14:21:21;16.20;;;9.70;;
25917;SDS011;13899;51.174;4.456;2024-01-10T14:23:47;14.27;;;10.20;;
25917;SDS011;13899;51.174;4.456;2024-01-10T14:26:13;13.87;;;9.70;;
25917;SDS011;13899;51.174;4.456;2024-01-10T14:31:05;12.80;;;10.93;;
25917;SDS011;13899;51.174;4.456;2024-01-10T14:33:31;17.73;;;11.05;;
25917;SDS011;13899;51.174;4.456;2024-01-10T14:35:57;17.60;;;11.97;;
25917;SDS011;13899;51.174;4.456;2024-01-10T14:38:24;21.70;;;15.48;;
25917;SDS011;13899;51.174;4.456;2024-01-10T14:40:49;17.77;;;14.27;;
25917;SDS011;13899;51.174;4.456;2024-01-10T14:45:42;15.23;;;12.30;;
25917;SDS011;13899;51.174;4.456;2024-01-10T14:48:09;21.60;;;16.48;;
25917;SDS011;13899;51.174;4.456;2024-01-10T14:50:34;13.83;;;9.97;;
25917;SDS011;13899;51.174;4.456;2024-01-10T14:53:01;17.63;;;11.60;;
25917;SDS011;13899;51.174;4.456;2024-01-10T14:55:26;15.93;;;11.85;;
25917;SDS011;13899;51.174;4.456;2024-01-10T14:57:53;15.70;;;13.25;;
25917;SDS011;13899;51.174;4.456;2024-01-10T15:00:19;19.45;;;15.27;;
25917;SDS011;13899;51.174;4.456;2024-01-10T15:02:45;22.63;;;15.87;;
25917;SDS011;13899;51.174;4.456;2024-01-10T15:05:11;22.80;;;15.90;;
25917;SDS011;13899;51.174;4.456;2024-01-10T15:07:37;18.83;;;13.90;;
25917;SDS011;13899;51.174;4.456;2024-01-10T15:10:03;17.00;;;14.90;;
25917;SDS011;13899;51.174;4.456;2024-01-10T15:12:29;16.13;;;14.40;;
25917;SDS011;13899;51.174;4.456;2024-01-10T15:14:55;18.10;;;14.23;;